Aviation Digital Data Service (ADDS)

Output produced by METARs form (1316 UTC 27 August 2016)
found at http://aviationweather.gov/adds/metars/
 
KSAN 271121Z 2712/2818 VRB04KT P6SM OVC023 
     FM271800 28010KT P6SM SCT025 
     FM280300 VRB05KT P6SM BKN020